sensor_id;sensor_type;location;lat;lon;timestamp;P1;durP1;ratioP1;P2;durP2;ratioP2
26151;SDS011;13907;53.154;8.202;2022-10-31T00:01:12;7.53;;;4.95;;
26151;SDS011;13907;53.154;8.202;2022-10-31T00:03:40;9.10;;;4.53;;
26151;SDS011;13907;53.154;8.202;2022-10-31T00:06:08;9.93;;;5.70;;
26151;SDS011;13907;53.154;8.202;2022-10-31T00:08:35;16.42;;;6.35;;
26151;SDS011;13907;53.154;8.202;2022-10-31T00:11:02;7.53;;;4.05;;
26151;SDS011;13907;53.154;8.202;2022-10-31T00:13:29;8.60;;;4.57;;
26151;SDS011;13907;53.154;8.202;2022-10-31T00:15:57;7.82;;;4.80;;
26151;SDS011;13907;53.154;8.202;2022-10-31T00:18:25;12.33;;;5.27;;
26151;SDS011;13907;53.154;8.202;2022-10-31T00:20:57;7.47;;;5.47;;
26151;SDS011;13907;53.154;8.202;2022-10-31T00:23:26;9.25;;;4.93;;
26151;SDS011;13907;53.154;8.202;2022-10-31T00:25:53;9.17;;;5.73;;
26151;SDS011;13907;53.154;8.202;2022-10-31T00:28:20;8.25;;;5.07;;
26151;SDS011;13907;53.154;8.202;2022-10-31T00:30:48;6.80;;;4.22;;
26151;SDS011;13907;53.154;8.202;2022-10-31T00:33:15;9.33;;;4.83;;
26151;SDS011;13907;53.154;8.202;2022-10-31T00:35:42;6.03;;;4.43;;
26151;SDS011;13907;53.154;8.202;2022-10-31T00:38:09;8.77;;;4.45;;
26151;SDS011;13907;53.154;8.202;2022-10-31T00:40:37;11.20;;;4.63;;
26151;SDS011;13907;53.154;8.202;2022-10-31T00:43:04;14.10;;;5.05;;
26151;SDS011;13907;53.154;8.202;2022-10-31T00:45:31;8.37;;;5.00;;
26151;SDS011;13907;53.154;8.202;2022-10-31T00:47:58;7.43;;;4.93;;
26151;SDS011;13907;53.154;8.202;2022-10-31T00:50:26;8.38;;;5.07;;
26151;SDS011;13907;53.154;8.202;2022-10-31T00:52:53;10.50;;;5.03;;
26151;SDS011;13907;53.154;8.202;2022-10-31T00:55:20;7.03;;;4.10;;
26151;SDS011;13907;53.154;8.202;2022-10-31T00:57:48;5.75;;;4.18;;
26151;SDS011;13907;53.154;8.202;2022-10-31T01:00:15;9.57;;;4.90;;
26151;SDS011;13907;53.154;8.202;2022-10-31T01:02:42;9.03;;;4.50;;
26151;SDS011;13907;53.154;8.202;2022-10-31T01:05:10;7.43;;;4.40;;
26151;SDS011;13907;53.154;8.202;2022-10-31T01:07:37;8.27;;;4.90;;
26151;SDS011;13907;53.154;8.202;2022-10-31T01:10:05;6.13;;;3.58;;
26151;SDS011;13907;53.154;8.202;2022-10-31T01:12:35;6.83;;;4.30;;
26151;SDS011;13907;53.154;8.202;2022-10-31T01:15:04;8.83;;;4.17;;
26151;SDS011;13907;53.154;8.202;2022-10-31T01:17:31;5.87;;;4.27;;
26151;SDS011;13907;53.154;8.202;2022-10-31T01:19:58;7.10;;;4.70;;
26151;SDS011;13907;53.154;8.202;2022-10-31T01:22:26;7.87;;;4.30;;
26151;SDS011;13907;53.154;8.202;2022-10-31T01:24:53;7.00;;;4.50;;
26151;SDS011;13907;53.154;8.202;2022-10-31T01:27:20;6.67;;;4.50;;
26151;SDS011;13907;53.154;8.202;2022-10-31T01:29:47;8.03;;;4.87;;
26151;SDS011;13907;53.154;8.202;2022-10-31T01:32:15;7.73;;;4.90;;
26151;SDS011;13907;53.154;8.202;2022-10-31T01:34:42;5.43;;;3.93;;
26151;SDS011;13907;53.154;8.202;2022-10-31T01:37:09;9.40;;;5.37;;
26151;SDS011;13907;53.154;8.202;2022-10-31T01:39:37;8.50;;;4.77;;
26151;SDS011;13907;53.154;8.202;2022-10-31T01:42:04;7.93;;;4.67;;
26151;SDS011;13907;53.154;8.202;2022-10-31T01:44:50;5.27;;;4.30;;
26151;SDS011;13907;53.154;8.202;2022-10-31T01:47:19;6.77;;;4.90;;
26151;SDS011;13907;53.154;8.202;2022-10-31T01:49:49;4.93;;;4.07;;
26151;SDS011;13907;53.154;8.202;2022-10-31T01:52:19;6.53;;;4.70;;
26151;SDS011;13907;53.154;8.202;2022-10-31T01:54:51;8.17;;;4.97;;
26151;SDS011;13907;53.154;8.202;2022-10-31T01:57:20;6.57;;;4.63;;
26151;SDS011;13907;53.154;8.202;2022-10-31T01:59:49;6.30;;;4.97;;
26151;SDS011;13907;53.154;8.202;2022-10-31T02:02:18;6.77;;;5.07;;
26151;SDS011;13907;53.154;8.202;2022-10-31T02:04:46;6.57;;;4.30;;
26151;SDS011;13907;53.154;8.202;2022-10-31T02:07:14;7.97;;;4.87;;
26151;SDS011;13907;53.154;8.202;2022-10-31T02:09:43;7.53;;;4.37;;
26151;SDS011;13907;53.154;8.202;2022-10-31T02:12:11;7.70;;;4.43;;
26151;SDS011;13907;53.154;8.202;2022-10-31T02:14:38;7.83;;;4.43;;
26151;SDS011;13907;53.154;8.202;2022-10-31T02:17:06;10.73;;;4.90;;
26151;SDS011;13907;53.154;8.202;2022-10-31T02:19:34;7.47;;;5.00;;
26151;SDS011;13907;53.154;8.202;2022-10-31T02:22:09;7.10;;;4.67;;
26151;SDS011;13907;53.154;8.202;2022-10-31T02:24:42;9.47;;;5.27;;
26151;SDS011;13907;53.154;8.202;2022-10-31T02:27:16;9.50;;;5.27;;
26151;SDS011;13907;53.154;8.202;2022-10-31T02:29:53;6.73;;;4.83;;
26151;SDS011;13907;53.154;8.202;2022-10-31T02:32:29;6.27;;;4.07;;
26151;SDS011;13907;53.154;8.202;2022-10-31T02:35:00;10.50;;;5.10;;
26151;SDS011;13907;53.154;8.202;2022-10-31T02:37:32;7.73;;;4.67;;
26151;SDS011;13907;53.154;8.202;2022-10-31T02:40:04;6.63;;;5.00;;
26151;SDS011;13907;53.154;8.202;2022-10-31T02:42:33;6.80;;;4.33;;
26151;SDS011;13907;53.154;8.202;2022-10-31T02:45:03;7.00;;;4.93;;
26151;SDS011;13907;53.154;8.202;2022-10-31T02:47:34;8.20;;;5.30;;
26151;SDS011;13907;53.154;8.202;2022-10-31T02:50:04;7.90;;;4.43;;
26151;SDS011;13907;53.154;8.202;2022-10-31T02:52:33;8.07;;;4.83;;
26151;SDS011;13907;53.154;8.202;2022-10-31T02:55:08;6.37;;;4.23;;
26151;SDS011;13907;53.154;8.202;2022-10-31T02:57:35;7.83;;;4.37;;
26151;SDS011;13907;53.154;8.202;2022-10-31T03:00:04;7.97;;;4.63;;
26151;SDS011;13907;53.154;8.202;2022-10-31T03:02:45;5.73;;;4.03;;
26151;SDS011;13907;53.154;8.202;2022-10-31T03:05:19;10.20;;;4.63;;
26151;SDS011;13907;53.154;8.202;2022-10-31T03:07:53;9.40;;;5.13;;
26151;SDS011;13907;53.154;8.202;2022-10-31T03:10:25;11.43;;;4.73;;
26151;SDS011;13907;53.154;8.202;2022-10-31T03:12:56;7.07;;;5.07;;
26151;SDS011;13907;53.154;8.202;2022-10-31T03:15:27;6.70;;;4.43;;
26151;SDS011;13907;53.154;8.202;2022-10-31T03:17:58;7.60;;;4.97;;
26151;SDS011;13907;53.154;8.202;2022-10-31T03:20:26;6.60;;;3.67;;
26151;SDS011;13907;53.154;8.202;2022-10-31T03:22:55;5.97;;;3.80;;
26151;SDS011;13907;53.154;8.202;2022-10-31T03:25:23;6.70;;;4.40;;
26151;SDS011;13907;53.154;8.202;2022-10-31T03:27:50;7.60;;;4.60;;
26151;SDS011;13907;53.154;8.202;2022-10-31T03:30:18;4.13;;;3.20;;
26151;SDS011;13907;53.154;8.202;2022-10-31T03:32:46;6.17;;;3.93;;
26151;SDS011;13907;53.154;8.202;2022-10-31T03:35:17;5.90;;;4.23;;
26151;SDS011;13907;53.154;8.202;2022-10-31T03:37:45;5.50;;;4.10;;
26151;SDS011;13907;53.154;8.202;2022-10-31T03:40:13;6.57;;;4.13;;
26151;SDS011;13907;53.154;8.202;2022-10-31T03:42:41;10.70;;;5.30;;
26151;SDS011;13907;53.154;8.202;2022-10-31T03:45:11;7.43;;;4.07;;
26151;SDS011;13907;53.154;8.202;2022-10-31T03:47:39;5.17;;;3.57;;
26151;SDS011;13907;53.154;8.202;2022-10-31T03:50:07;4.63;;;3.70;;
26151;SDS011;13907;53.154;8.202;2022-10-31T03:52:37;6.17;;;3.30;;
26151;SDS011;13907;53.154;8.202;2022-10-31T03:55:09;5.47;;;3.83;;
26151;SDS011;13907;53.154;8.202;2022-10-31T04:00:40;8.13;;;4.63;;
26151;SDS011;13907;53.154;8.202;2022-10-31T04:03:09;8.00;;;4.80;;
26151;SDS011;13907;53.154;8.202;2022-10-31T04:05:38;6.83;;;4.23;;
26151;SDS011;13907;53.154;8.202;2022-10-31T04:08:08;8.60;;;5.37;;
26151;SDS011;13907;53.154;8.202;2022-10-31T04:10:36;6.27;;;4.23;;
26151;SDS011;13907;53.154;8.202;2022-10-31T04:13:05;10.30;;;5.13;;
26151;SDS011;13907;53.154;8.202;2022-10-31T04:15:32;5.57;;;3.90;;
26151;SDS011;13907;53.154;8.202;2022-10-31T04:18:00;6.27;;;3.70;;
26151;SDS011;13907;53.154;8.202;2022-10-31T04:20:32;6.47;;;4.20;;
26151;SDS011;13907;53.154;8.202;2022-10-31T04:22:59;7.07;;;4.07;;
26151;SDS011;13907;53.154;8.202;2022-10-31T04:25:28;6.73;;;4.53;;
26151;SDS011;13907;53.154;8.202;2022-10-31T04:27:55;6.03;;;4.00;;
26151;SDS011;13907;53.154;8.202;2022-10-31T04:30:36;5.37;;;4.23;;
26151;SDS011;13907;53.154;8.202;2022-10-31T04:33:03;7.27;;;3.47;;
26151;SDS011;13907;53.154;8.202;2022-10-31T04:35:30;6.03;;;3.80;;
26151;SDS011;13907;53.154;8.202;2022-10-31T04:37:57;4.57;;;3.10;;
26151;SDS011;13907;53.154;8.202;2022-10-31T04:40:24;5.63;;;3.73;;
26151;SDS011;13907;53.154;8.202;2022-10-31T04:45:56;4.87;;;3.47;;
26151;SDS011;13907;53.154;8.202;2022-10-31T04:48:24;5.73;;;3.47;;
26151;SDS011;13907;53.154;8.202;2022-10-31T04:50:51;4.93;;;3.47;;
26151;SDS011;13907;53.154;8.202;2022-10-31T04:53:18;4.57;;;3.17;;
26151;SDS011;13907;53.154;8.202;2022-10-31T04:55:45;4.30;;;3.57;;
26151;SDS011;13907;53.154;8.202;2022-10-31T04:58:12;5.47;;;4.17;;
26151;SDS011;13907;53.154;8.202;2022-10-31T05:00:39;3.80;;;3.07;;
26151;SDS011;13907;53.154;8.202;2022-10-31T05:03:08;4.07;;;3.43;;
26151;SDS011;13907;53.154;8.202;2022-10-31T05:05:35;5.07;;;3.23;;
26151;SDS011;13907;53.154;8.202;2022-10-31T05:08:02;4.67;;;3.87;;
26151;SDS011;13907;53.154;8.202;2022-10-31T05:10:29;5.30;;;3.30;;
26151;SDS011;13907;53.154;8.202;2022-10-31T05:12:57;4.20;;;3.00;;
26151;SDS011;13907;53.154;8.202;2022-10-31T05:15:25;4.87;;;3.20;;
26151;SDS011;13907;53.154;8.202;2022-10-31T05:17:53;7.87;;;3.73;;
26151;SDS011;13907;53.154;8.202;2022-10-31T05:20:22;4.00;;;3.50;;
26151;SDS011;13907;53.154;8.202;2022-10-31T05:22:51;4.47;;;3.67;;
26151;SDS011;13907;53.154;8.202;2022-10-31T05:25:18;4.50;;;3.27;;
26151;SDS011;13907;53.154;8.202;2022-10-31T05:27:46;5.30;;;4.13;;
26151;SDS011;13907;53.154;8.202;2022-10-31T05:30:14;5.47;;;3.33;;
26151;SDS011;13907;53.154;8.202;2022-10-31T05:32:42;3.60;;;3.30;;
26151;SDS011;13907;53.154;8.202;2022-10-31T05:35:10;4.43;;;3.07;;
26151;SDS011;13907;53.154;8.202;2022-10-31T05:37:39;3.40;;;2.93;;
26151;SDS011;13907;53.154;8.202;2022-10-31T05:40:08;5.67;;;3.67;;
26151;SDS011;13907;53.154;8.202;2022-10-31T05:42:38;5.20;;;3.73;;
26151;SDS011;13907;53.154;8.202;2022-10-31T05:45:06;4.97;;;3.20;;
26151;SDS011;13907;53.154;8.202;2022-10-31T05:47:33;4.57;;;4.10;;
26151;SDS011;13907;53.154;8.202;2022-10-31T05:50:00;4.53;;;3.37;;
26151;SDS011;13907;53.154;8.202;2022-10-31T05:52:27;4.60;;;3.40;;
26151;SDS011;13907;53.154;8.202;2022-10-31T05:54:56;4.27;;;3.13;;
26151;SDS011;13907;53.154;8.202;2022-10-31T05:57:23;4.20;;;3.60;;
26151;SDS011;13907;53.154;8.202;2022-10-31T05:59:50;4.07;;;3.47;;
26151;SDS011;13907;53.154;8.202;2022-10-31T06:02:17;4.17;;;3.77;;
26151;SDS011;13907;53.154;8.202;2022-10-31T06:04:45;4.13;;;3.50;;
26151;SDS011;13907;53.154;8.202;2022-10-31T06:07:12;5.30;;;3.77;;
26151;SDS011;13907;53.154;8.202;2022-10-31T06:09:39;4.33;;;3.53;;
26151;SDS011;13907;53.154;8.202;2022-10-31T06:12:07;4.30;;;3.40;;
26151;SDS011;13907;53.154;8.202;2022-10-31T06:14:34;4.93;;;3.47;;
26151;SDS011;13907;53.154;8.202;2022-10-31T06:17:01;5.00;;;3.70;;
26151;SDS011;13907;53.154;8.202;2022-10-31T06:19:28;4.07;;;3.67;;
26151;SDS011;13907;53.154;8.202;2022-10-31T06:21:55;5.13;;;3.80;;
26151;SDS011;13907;53.154;8.202;2022-10-31T06:24:23;5.67;;;3.53;;
26151;SDS011;13907;53.154;8.202;2022-10-31T06:26:50;3.17;;;2.87;;
26151;SDS011;13907;53.154;8.202;2022-10-31T06:29:18;5.47;;;4.10;;
26151;SDS011;13907;53.154;8.202;2022-10-31T06:31:45;5.67;;;4.03;;
26151;SDS011;13907;53.154;8.202;2022-10-31T06:34:12;5.07;;;3.30;;
26151;SDS011;13907;53.154;8.202;2022-10-31T06:36:39;4.93;;;3.90;;
26151;SDS011;13907;53.154;8.202;2022-10-31T06:39:06;5.03;;;3.83;;
26151;SDS011;13907;53.154;8.202;2022-10-31T06:41:34;4.33;;;3.67;;
26151;SDS011;13907;53.154;8.202;2022-10-31T06:44:01;4.80;;;4.27;;
26151;SDS011;13907;53.154;8.202;2022-10-31T06:46:30;6.40;;;3.90;;
26151;SDS011;13907;53.154;8.202;2022-10-31T06:48:57;6.47;;;4.40;;
26151;SDS011;13907;53.154;8.202;2022-10-31T06:51:24;4.77;;;3.47;;
26151;SDS011;13907;53.154;8.202;2022-10-31T06:53:51;5.13;;;4.03;;
26151;SDS011;13907;53.154;8.202;2022-10-31T06:56:18;5.00;;;4.17;;
26151;SDS011;13907;53.154;8.202;2022-10-31T06:58:45;5.73;;;3.93;;
26151;SDS011;13907;53.154;8.202;2022-10-31T07:01:12;3.63;;;2.90;;
26151;SDS011;13907;53.154;8.202;2022-10-31T07:03:41;3.73;;;3.00;;
26151;SDS011;13907;53.154;8.202;2022-10-31T07:06:08;6.27;;;4.33;;
26151;SDS011;13907;53.154;8.202;2022-10-31T07:08:35;5.93;;;4.60;;
26151;SDS011;13907;53.154;8.202;2022-10-31T07:11:02;5.43;;;3.23;;
26151;SDS011;13907;53.154;8.202;2022-10-31T07:13:29;4.40;;;3.70;;
26151;SDS011;13907;53.154;8.202;2022-10-31T07:15:59;6.30;;;4.50;;
26151;SDS011;13907;53.154;8.202;2022-10-31T07:18:26;4.40;;;3.33;;
26151;SDS011;13907;53.154;8.202;2022-10-31T07:20:55;6.10;;;4.07;;
26151;SDS011;13907;53.154;8.202;2022-10-31T07:23:22;4.70;;;4.10;;
26151;SDS011;13907;53.154;8.202;2022-10-31T07:25:53;6.37;;;4.37;;
26151;SDS011;13907;53.154;8.202;2022-10-31T07:28:21;3.83;;;3.47;;
26151;SDS011;13907;53.154;8.202;2022-10-31T07:30:49;7.20;;;4.43;;
26151;SDS011;13907;53.154;8.202;2022-10-31T07:33:17;3.97;;;3.20;;
26151;SDS011;13907;53.154;8.202;2022-10-31T07:35:44;7.40;;;4.67;;
26151;SDS011;13907;53.154;8.202;2022-10-31T07:38:13;5.00;;;3.63;;
26151;SDS011;13907;53.154;8.202;2022-10-31T07:40:40;7.03;;;4.60;;
26151;SDS011;13907;53.154;8.202;2022-10-31T07:43:08;5.00;;;3.80;;
26151;SDS011;13907;53.154;8.202;2022-10-31T07:45:35;4.97;;;4.40;;
26151;SDS011;13907;53.154;8.202;2022-10-31T07:48:02;7.53;;;5.30;;
26151;SDS011;13907;53.154;8.202;2022-10-31T07:50:30;9.23;;;4.73;;
26151;SDS011;13907;53.154;8.202;2022-10-31T07:52:59;7.60;;;5.30;;
26151;SDS011;13907;53.154;8.202;2022-10-31T07:55:27;5.23;;;4.37;;
26151;SDS011;13907;53.154;8.202;2022-10-31T07:57:55;8.20;;;5.27;;
26151;SDS011;13907;53.154;8.202;2022-10-31T08:00:22;7.13;;;4.97;;
26151;SDS011;13907;53.154;8.202;2022-10-31T08:02:55;7.00;;;4.27;;
26151;SDS011;13907;53.154;8.202;2022-10-31T08:05:23;6.07;;;4.30;;
26151;SDS011;13907;53.154;8.202;2022-10-31T08:07:50;6.53;;;4.90;;
26151;SDS011;13907;53.154;8.202;2022-10-31T08:10:17;7.73;;;4.87;;
26151;SDS011;13907;53.154;8.202;2022-10-31T08:12:45;6.30;;;4.60;;
26151;SDS011;13907;53.154;8.202;2022-10-31T08:15:12;9.37;;;6.47;;
26151;SDS011;13907;53.154;8.202;2022-10-31T08:17:39;6.03;;;4.60;;
26151;SDS011;13907;53.154;8.202;2022-10-31T08:20:07;7.43;;;5.13;;
26151;SDS011;13907;53.154;8.202;2022-10-31T08:22:34;7.83;;;5.13;;
26151;SDS011;13907;53.154;8.202;2022-10-31T08:25:01;6.57;;;4.80;;
26151;SDS011;13907;53.154;8.202;2022-10-31T08:27:28;8.13;;;4.80;;
26151;SDS011;13907;53.154;8.202;2022-10-31T08:29:57;10.33;;;5.33;;
26151;SDS011;13907;53.154;8.202;2022-10-31T08:32:24;11.03;;;5.20;;
26151;SDS011;13907;53.154;8.202;2022-10-31T08:34:51;7.10;;;4.47;;
26151;SDS011;13907;53.154;8.202;2022-10-31T08:37:18;7.37;;;5.03;;
26151;SDS011;13907;53.154;8.202;2022-10-31T08:39:45;5.07;;;4.23;;
26151;SDS011;13907;53.154;8.202;2022-10-31T08:42:12;9.23;;;5.43;;
26151;SDS011;13907;53.154;8.202;2022-10-31T08:44:40;10.07;;;6.33;;
26151;SDS011;13907;53.154;8.202;2022-10-31T08:47:08;7.50;;;5.30;;
26151;SDS011;13907;53.154;8.202;2022-10-31T08:49:35;7.83;;;5.00;;
26151;SDS011;13907;53.154;8.202;2022-10-31T08:52:02;9.23;;;5.83;;
26151;SDS011;13907;53.154;8.202;2022-10-31T08:54:30;7.07;;;5.43;;
26151;SDS011;13907;53.154;8.202;2022-10-31T08:56:57;6.53;;;5.03;;
26151;SDS011;13907;53.154;8.202;2022-10-31T08:59:24;10.27;;;6.87;;
26151;SDS011;13907;53.154;8.202;2022-10-31T09:01:51;9.83;;;6.23;;
26151;SDS011;13907;53.154;8.202;2022-10-31T09:04:19;8.30;;;5.23;;
26151;SDS011;13907;53.154;8.202;2022-10-31T09:06:46;8.57;;;6.53;;
26151;SDS011;13907;53.154;8.202;2022-10-31T09:09:13;7.97;;;5.77;;
26151;SDS011;13907;53.154;8.202;2022-10-31T09:11:40;7.60;;;5.80;;
26151;SDS011;13907;53.154;8.202;2022-10-31T09:14:08;8.90;;;6.27;;
26151;SDS011;13907;53.154;8.202;2022-10-31T09:16:35;9.70;;;6.27;;
26151;SDS011;13907;53.154;8.202;2022-10-31T09:19:02;9.20;;;5.23;;
26151;SDS011;13907;53.154;8.202;2022-10-31T09:21:30;12.97;;;6.77;;
26151;SDS011;13907;53.154;8.202;2022-10-31T09:23:58;9.77;;;5.27;;
26151;SDS011;13907;53.154;8.202;2022-10-31T09:26:25;7.77;;;5.30;;
26151;SDS011;13907;53.154;8.202;2022-10-31T09:28:52;13.47;;;5.70;;
26151;SDS011;13907;53.154;8.202;2022-10-31T09:31:19;12.63;;;6.47;;
26151;SDS011;13907;53.154;8.202;2022-10-31T09:33:46;10.90;;;6.77;;
26151;SDS011;13907;53.154;8.202;2022-10-31T09:36:13;8.90;;;5.60;;
26151;SDS011;13907;53.154;8.202;2022-10-31T09:38:42;14.43;;;5.43;;
26151;SDS011;13907;53.154;8.202;2022-10-31T09:41:13;9.47;;;6.03;;
26151;SDS011;13907;53.154;8.202;2022-10-31T09:43:46;8.87;;;5.60;;
26151;SDS011;13907;53.154;8.202;2022-10-31T09:46:16;9.93;;;5.70;;
26151;SDS011;13907;53.154;8.202;2022-10-31T09:48:52;7.53;;;5.27;;
26151;SDS011;13907;53.154;8.202;2022-10-31T09:51:24;10.33;;;6.77;;
26151;SDS011;13907;53.154;8.202;2022-10-31T09:53:53;10.48;;;5.88;;
26151;SDS011;13907;53.154;8.202;2022-10-31T09:56:22;7.63;;;5.70;;
26151;SDS011;13907;53.154;8.202;2022-10-31T09:58:52;9.83;;;5.37;;
26151;SDS011;13907;53.154;8.202;2022-10-31T10:01:30;10.60;;;5.90;;
26151;SDS011;13907;53.154;8.202;2022-10-31T10:03:59;7.97;;;5.50;;
26151;SDS011;13907;53.154;8.202;2022-10-31T10:06:29;9.43;;;5.77;;
26151;SDS011;13907;53.154;8.202;2022-10-31T10:08:57;12.32;;;6.53;;
26151;SDS011;13907;53.154;8.202;2022-10-31T10:11:29;12.77;;;5.90;;
26151;SDS011;13907;53.154;8.202;2022-10-31T10:14:04;10.85;;;5.43;;
26151;SDS011;13907;53.154;8.202;2022-10-31T10:16:42;10.30;;;5.28;;
26151;SDS011;13907;53.154;8.202;2022-10-31T10:19:17;13.20;;;5.68;;
26151;SDS011;13907;53.154;8.202;2022-10-31T10:21:48;10.30;;;5.90;;
26151;SDS011;13907;53.154;8.202;2022-10-31T10:24:21;15.20;;;7.17;;
26151;SDS011;13907;53.154;8.202;2022-10-31T10:26:52;10.25;;;6.13;;
26151;SDS011;13907;53.154;8.202;2022-10-31T10:29:27;7.40;;;4.40;;
26151;SDS011;13907;53.154;8.202;2022-10-31T10:31:57;8.52;;;5.45;;
26151;SDS011;13907;53.154;8.202;2022-10-31T10:34:26;11.23;;;5.30;;
26151;SDS011;13907;53.154;8.202;2022-10-31T10:36:56;9.20;;;5.70;;
26151;SDS011;13907;53.154;8.202;2022-10-31T10:39:27;13.65;;;6.03;;
26151;SDS011;13907;53.154;8.202;2022-10-31T10:41:57;9.60;;;5.63;;
26151;SDS011;13907;53.154;8.202;2022-10-31T10:44:43;9.30;;;6.60;;
26151;SDS011;13907;53.154;8.202;2022-10-31T10:47:30;9.43;;;6.65;;
26151;SDS011;13907;53.154;8.202;2022-10-31T10:50:06;8.00;;;5.10;;
26151;SDS011;13907;53.154;8.202;2022-10-31T10:52:35;10.85;;;5.18;;
26151;SDS011;13907;53.154;8.202;2022-10-31T10:55:11;10.85;;;5.10;;
26151;SDS011;13907;53.154;8.202;2022-10-31T10:57:45;9.93;;;4.85;;
26151;SDS011;13907;53.154;8.202;2022-10-31T11:00:19;7.72;;;4.82;;
26151;SDS011;13907;53.154;8.202;2022-10-31T11:02:46;7.25;;;4.80;;
26151;SDS011;13907;53.154;8.202;2022-10-31T11:05:15;9.65;;;4.93;;
26151;SDS011;13907;53.154;8.202;2022-10-31T11:07:43;8.98;;;4.30;;
26151;SDS011;13907;53.154;8.202;2022-10-31T11:10:13;6.82;;;4.45;;
26151;SDS011;13907;53.154;8.202;2022-10-31T11:12:40;6.28;;;4.57;;
26151;SDS011;13907;53.154;8.202;2022-10-31T11:15:16;10.50;;;5.50;;
26151;SDS011;13907;53.154;8.202;2022-10-31T11:17:47;6.80;;;4.28;;
26151;SDS011;13907;53.154;8.202;2022-10-31T11:20:29;6.57;;;4.15;;
26151;SDS011;13907;53.154;8.202;2022-10-31T11:23:00;6.25;;;3.83;;
26151;SDS011;13907;53.154;8.202;2022-10-31T11:25:29;8.68;;;4.85;;
26151;SDS011;13907;53.154;8.202;2022-10-31T11:27:59;6.13;;;4.60;;
26151;SDS011;13907;53.154;8.202;2022-10-31T11:30:27;4.68;;;3.13;;
26151;SDS011;13907;53.154;8.202;2022-10-31T11:36:23;6.00;;;3.80;;
26151;SDS011;13907;53.154;8.202;2022-10-31T11:38:51;6.40;;;3.78;;
26151;SDS011;13907;53.154;8.202;2022-10-31T11:41:24;7.45;;;4.75;;
26151;SDS011;13907;53.154;8.202;2022-10-31T11:43:53;6.15;;;3.92;;
26151;SDS011;13907;53.154;8.202;2022-10-31T11:46:22;7.05;;;3.42;;
26151;SDS011;13907;53.154;8.202;2022-10-31T11:48:53;5.65;;;3.95;;
26151;SDS011;13907;53.154;8.202;2022-10-31T11:51:21;8.57;;;3.50;;
26151;SDS011;13907;53.154;8.202;2022-10-31T11:53:50;9.43;;;3.72;;
26151;SDS011;13907;53.154;8.202;2022-10-31T11:56:18;8.57;;;3.78;;
26151;SDS011;13907;53.154;8.202;2022-10-31T11:58:55;5.65;;;3.03;;
26151;SDS011;13907;53.154;8.202;2022-10-31T12:01:24;5.82;;;3.78;;
26151;SDS011;13907;53.154;8.202;2022-10-31T12:03:53;6.75;;;3.92;;
26151;SDS011;13907;53.154;8.202;2022-10-31T12:06:22;8.52;;;3.80;;
26151;SDS011;13907;53.154;8.202;2022-10-31T12:08:50;6.90;;;3.92;;
26151;SDS011;13907;53.154;8.202;2022-10-31T12:11:22;7.25;;;3.90;;
26151;SDS011;13907;53.154;8.202;2022-10-31T12:13:57;8.43;;;4.40;;
26151;SDS011;13907;53.154;8.202;2022-10-31T12:16:27;9.02;;;3.92;;
26151;SDS011;13907;53.154;8.202;2022-10-31T12:18:59;8.52;;;4.35;;
26151;SDS011;13907;53.154;8.202;2022-10-31T12:21:31;7.78;;;3.67;;
26151;SDS011;13907;53.154;8.202;2022-10-31T12:24:05;9.50;;;4.25;;
26151;SDS011;13907;53.154;8.202;2022-10-31T12:26:36;7.60;;;4.40;;
26151;SDS011;13907;53.154;8.202;2022-10-31T12:32:15;7.20;;;3.72;;
26151;SDS011;13907;53.154;8.202;2022-10-31T12:34:57;11.43;;;5.90;;
26151;SDS011;13907;53.154;8.202;2022-10-31T12:37:30;8.48;;;4.63;;
26151;SDS011;13907;53.154;8.202;2022-10-31T12:40:04;8.82;;;5.03;;
26151;SDS011;13907;53.154;8.202;2022-10-31T12:42:38;12.10;;;5.28;;
26151;SDS011;13907;53.154;8.202;2022-10-31T12:45:12;7.57;;;4.68;;
26151;SDS011;13907;53.154;8.202;2022-10-31T12:47:49;8.18;;;4.38;;
26151;SDS011;13907;53.154;8.202;2022-10-31T12:50:21;13.60;;;4.97;;
26151;SDS011;13907;53.154;8.202;2022-10-31T12:52:56;11.05;;;5.95;;
26151;SDS011;13907;53.154;8.202;2022-10-31T12:55:34;7.93;;;4.35;;
26151;SDS011;13907;53.154;8.202;2022-10-31T12:58:04;11.15;;;5.00;;
26151;SDS011;13907;53.154;8.202;2022-10-31T13:00:35;12.45;;;5.88;;
26151;SDS011;13907;53.154;8.202;2022-10-31T13:03:12;7.40;;;5.00;;
26151;SDS011;13907;53.154;8.202;2022-10-31T13:05:41;8.88;;;5.43;;
26151;SDS011;13907;53.154;8.202;2022-10-31T13:08:11;7.47;;;4.68;;
26151;SDS011;13907;53.154;8.202;2022-10-31T13:10:40;9.65;;;5.40;;
26151;SDS011;13907;53.154;8.202;2022-10-31T13:13:10;9.43;;;5.82;;
26151;SDS011;13907;53.154;8.202;2022-10-31T13:15:45;10.40;;;5.97;;
26151;SDS011;13907;53.154;8.202;2022-10-31T13:18:18;11.13;;;5.88;;
26151;SDS011;13907;53.154;8.202;2022-10-31T13:20:46;9.88;;;5.93;;
26151;SDS011;13907;53.154;8.202;2022-10-31T13:23:16;11.55;;;6.85;;
26151;SDS011;13907;53.154;8.202;2022-10-31T13:25:44;10.80;;;5.90;;
26151;SDS011;13907;53.154;8.202;2022-10-31T13:28:17;10.98;;;6.07;;
26151;SDS011;13907;53.154;8.202;2022-10-31T13:30:48;9.68;;;6.55;;
26151;SDS011;13907;53.154;8.202;2022-10-31T13:33:19;11.52;;;7.18;;
26151;SDS011;13907;53.154;8.202;2022-10-31T13:35:48;11.75;;;6.15;;
26151;SDS011;13907;53.154;8.202;2022-10-31T13:38:19;9.82;;;7.18;;
26151;SDS011;13907;53.154;8.202;2022-10-31T13:40:50;11.05;;;6.90;;
26151;SDS011;13907;53.154;8.202;2022-10-31T13:43:26;13.05;;;7.18;;
26151;SDS011;13907;53.154;8.202;2022-10-31T13:45:54;10.85;;;7.43;;
26151;SDS011;13907;53.154;8.202;2022-10-31T13:48:36;11.32;;;6.65;;
26151;SDS011;13907;53.154;8.202;2022-10-31T13:51:04;11.10;;;6.78;;
26151;SDS011;13907;53.154;8.202;2022-10-31T13:53:36;9.32;;;6.07;;
26151;SDS011;13907;53.154;8.202;2022-10-31T13:56:05;10.00;;;6.47;;
26151;SDS011;13907;53.154;8.202;2022-10-31T13:58:38;11.55;;;6.68;;
26151;SDS011;13907;53.154;8.202;2022-10-31T14:01:11;9.57;;;6.85;;
26151;SDS011;13907;53.154;8.202;2022-10-31T14:03:42;10.25;;;7.57;;
26151;SDS011;13907;53.154;8.202;2022-10-31T14:06:09;12.10;;;7.72;;
26151;SDS011;13907;53.154;8.202;2022-10-31T14:08:38;11.23;;;6.63;;
26151;SDS011;13907;53.154;8.202;2022-10-31T14:11:06;12.00;;;7.43;;
26151;SDS011;13907;53.154;8.202;2022-10-31T14:13:35;16.35;;;6.25;;
26151;SDS011;13907;53.154;8.202;2022-10-31T14:16:03;12.23;;;6.47;;
26151;SDS011;13907;53.154;8.202;2022-10-31T14:18:32;11.40;;;6.47;;
26151;SDS011;13907;53.154;8.202;2022-10-31T14:21:01;9.35;;;5.75;;
26151;SDS011;13907;53.154;8.202;2022-10-31T14:23:39;12.60;;;7.85;;
26151;SDS011;13907;53.154;8.202;2022-10-31T14:26:18;9.55;;;5.82;;
26151;SDS011;13907;53.154;8.202;2022-10-31T14:28:46;9.93;;;5.72;;
26151;SDS011;13907;53.154;8.202;2022-10-31T14:34:01;11.27;;;7.05;;
26151;SDS011;13907;53.154;8.202;2022-10-31T14:36:34;14.13;;;7.00;;
26151;SDS011;13907;53.154;8.202;2022-10-31T14:39:04;19.77;;;7.47;;
26151;SDS011;13907;53.154;8.202;2022-10-31T14:41:40;14.90;;;7.78;;
26151;SDS011;13907;53.154;8.202;2022-10-31T14:44:17;10.70;;;7.20;;
26151;SDS011;13907;53.154;8.202;2022-10-31T14:46:50;14.18;;;8.10;;
26151;SDS011;13907;53.154;8.202;2022-10-31T14:49:26;15.38;;;8.02;;
26151;SDS011;13907;53.154;8.202;2022-10-31T14:51:57;17.67;;;8.63;;
26151;SDS011;13907;53.154;8.202;2022-10-31T14:54:27;12.80;;;7.38;;
26151;SDS011;13907;53.154;8.202;2022-10-31T14:56:56;10.70;;;7.22;;
26151;SDS011;13907;53.154;8.202;2022-10-31T14:59:28;16.17;;;8.13;;
26151;SDS011;13907;53.154;8.202;2022-10-31T15:01:56;11.32;;;8.00;;
26151;SDS011;13907;53.154;8.202;2022-10-31T15:04:25;12.15;;;7.50;;
26151;SDS011;13907;53.154;8.202;2022-10-31T15:06:54;13.57;;;8.20;;
26151;SDS011;13907;53.154;8.202;2022-10-31T15:09:23;10.68;;;6.72;;
26151;SDS011;13907;53.154;8.202;2022-10-31T15:11:51;9.75;;;7.18;;
26151;SDS011;13907;53.154;8.202;2022-10-31T15:14:22;14.98;;;7.10;;